sensor_id;sensor_type;location;lat;lon;timestamp;temperature;humidity
13322;DHT22;6730;46.248;6.930;2024-01-16T00:01:32;2.80;99.90
13322;DHT22;6730;46.248;6.930;2024-01-16T00:03:57;2.70;99.90
13322;DHT22;6730;46.248;6.930;2024-01-16T00:06:23;2.60;99.90
13322;DHT22;6730;46.248;6.930;2024-01-16T00:08:48;2.30;99.90
13322;DHT22;6730;46.248;6.930;2024-01-16T00:11:14;2.10;99.90
13322;DHT22;6730;46.248;6.930;2024-01-16T00:13:40;1.70;99.90
13322;DHT22;6730;46.248;6.930;2024-01-16T00:16:05;1.60;99.90
13322;DHT22;6730;46.248;6.930;2024-01-16T00:18:31;1.50;99.90
13322;DHT22;6730;46.248;6.930;2024-01-16T00:20:57;1.30;99.90
13322;DHT22;6730;46.248;6.930;2024-01-16T00:23:23;1.10;99.90
13322;DHT22;6730;46.248;6.930;2024-01-16T00:25:48;1.10;99.90
13322;DHT22;6730;46.248;6.930;2024-01-16T00:28:14;1.20;99.90
13322;DHT22;6730;46.248;6.930;2024-01-16T00:30:39;1.20;99.90
13322;DHT22;6730;46.248;6.930;2024-01-16T00:33:06;1.20;99.90
13322;DHT22;6730;46.248;6.930;2024-01-16T00:35:31;1.20;99.90
13322;DHT22;6730;46.248;6.930;2024-01-16T00:37:57;1.10;99.90
13322;DHT22;6730;46.248;6.930;2024-01-16T00:40:23;1.10;99.90
13322;DHT22;6730;46.248;6.930;2024-01-16T00:42:48;1.20;99.90
13322;DHT22;6730;46.248;6.930;2024-01-16T00:45:14;1.10;99.90
13322;DHT22;6730;46.248;6.930;2024-01-16T00:47:40;1.00;99.90
13322;DHT22;6730;46.248;6.930;2024-01-16T00:50:06;1.00;99.90
13322;DHT22;6730;46.248;6.930;2024-01-16T00:52:32;1.20;99.90
13322;DHT22;6730;46.248;6.930;2024-01-16T00:54:58;1.30;99.90
13322;DHT22;6730;46.248;6.930;2024-01-16T00:57:23;1.40;99.90
13322;DHT22;6730;46.248;6.930;2024-01-16T00:59:49;1.50;99.90
13322;DHT22;6730;46.248;6.930;2024-01-16T01:02:15;1.50;99.90
13322;DHT22;6730;46.248;6.930;2024-01-16T01:04:41;1.60;99.90
13322;DHT22;6730;46.248;6.930;2024-01-16T01:07:08;1.60;99.90
13322;DHT22;6730;46.248;6.930;2024-01-16T01:09:34;1.60;99.90
13322;DHT22;6730;46.248;6.930;2024-01-16T01:12:00;1.50;99.90
13322;DHT22;6730;46.248;6.930;2024-01-16T01:14:25;1.40;99.90
13322;DHT22;6730;46.248;6.930;2024-01-16T01:16:54;1.30;99.90
13322;DHT22;6730;46.248;6.930;2024-01-16T01:19:20;1.40;99.90
13322;DHT22;6730;46.248;6.930;2024-01-16T01:21:45;1.50;99.90
13322;DHT22;6730;46.248;6.930;2024-01-16T01:24:11;1.40;99.90
13322;DHT22;6730;46.248;6.930;2024-01-16T01:26:37;1.30;99.90
13322;DHT22;6730;46.248;6.930;2024-01-16T01:29:02;1.30;99.90
13322;DHT22;6730;46.248;6.930;2024-01-16T01:31:28;1.00;99.90
13322;DHT22;6730;46.248;6.930;2024-01-16T01:33:54;0.90;99.90
13322;DHT22;6730;46.248;6.930;2024-01-16T01:36:19;0.80;99.90
13322;DHT22;6730;46.248;6.930;2024-01-16T01:38:45;0.80;99.90
13322;DHT22;6730;46.248;6.930;2024-01-16T01:41:11;0.60;99.90
13322;DHT22;6730;46.248;6.930;2024-01-16T01:43:43;0.70;99.90
13322;DHT22;6730;46.248;6.930;2024-01-16T01:46:18;0.70;99.90
13322;DHT22;6730;46.248;6.930;2024-01-16T01:48:46;0.60;99.90
13322;DHT22;6730;46.248;6.930;2024-01-16T01:51:14;0.60;99.90
13322;DHT22;6730;46.248;6.930;2024-01-16T01:53:42;0.50;99.90
13322;DHT22;6730;46.248;6.930;2024-01-16T01:56:13;0.50;99.90
13322;DHT22;6730;46.248;6.930;2024-01-16T01:58:42;0.50;99.90
13322;DHT22;6730;46.248;6.930;2024-01-16T02:01:09;0.50;99.90
13322;DHT22;6730;46.248;6.930;2024-01-16T02:03:40;0.50;99.90
13322;DHT22;6730;46.248;6.930;2024-01-16T02:06:07;0.50;99.90
13322;DHT22;6730;46.248;6.930;2024-01-16T02:08:33;0.50;99.90
13322;DHT22;6730;46.248;6.930;2024-01-16T02:10:58;0.60;99.90
13322;DHT22;6730;46.248;6.930;2024-01-16T02:13:24;0.70;99.90
13322;DHT22;6730;46.248;6.930;2024-01-16T02:15:50;0.90;99.90
13322;DHT22;6730;46.248;6.930;2024-01-16T02:18:17;0.80;99.90
13322;DHT22;6730;46.248;6.930;2024-01-16T02:20:44;0.80;99.90
13322;DHT22;6730;46.248;6.930;2024-01-16T02:23:10;0.90;99.90
13322;DHT22;6730;46.248;6.930;2024-01-16T02:25:38;0.90;99.90
13322;DHT22;6730;46.248;6.930;2024-01-16T02:28:04;1.00;99.90
13322;DHT22;6730;46.248;6.930;2024-01-16T02:30:29;0.90;99.90
13322;DHT22;6730;46.248;6.930;2024-01-16T02:32:56;1.10;99.90
13322;DHT22;6730;46.248;6.930;2024-01-16T02:35:21;1.00;99.90
13322;DHT22;6730;46.248;6.930;2024-01-16T02:37:47;1.00;99.90
13322;DHT22;6730;46.248;6.930;2024-01-16T02:40:13;0.90;99.90
13322;DHT22;6730;46.248;6.930;2024-01-16T02:42:38;0.90;99.90
13322;DHT22;6730;46.248;6.930;2024-01-16T02:45:05;0.90;99.90
13322;DHT22;6730;46.248;6.930;2024-01-16T02:47:32;0.90;99.90
13322;DHT22;6730;46.248;6.930;2024-01-16T02:50:00;0.90;99.90
13322;DHT22;6730;46.248;6.930;2024-01-16T02:52:26;0.80;99.90
13322;DHT22;6730;46.248;6.930;2024-01-16T02:54:51;0.80;99.90
13322;DHT22;6730;46.248;6.930;2024-01-16T02:57:17;0.60;99.90
13322;DHT22;6730;46.248;6.930;2024-01-16T02:59:46;0.50;99.90
13322;DHT22;6730;46.248;6.930;2024-01-16T03:02:12;0.40;99.90
13322;DHT22;6730;46.248;6.930;2024-01-16T03:04:39;0.50;99.90
13322;DHT22;6730;46.248;6.930;2024-01-16T03:07:05;0.50;99.90
13322;DHT22;6730;46.248;6.930;2024-01-16T03:09:31;0.40;99.90
13322;DHT22;6730;46.248;6.930;2024-01-16T03:11:56;0.40;99.90
13322;DHT22;6730;46.248;6.930;2024-01-16T03:14:23;0.60;99.90
13322;DHT22;6730;46.248;6.930;2024-01-16T03:16:48;0.60;99.90
13322;DHT22;6730;46.248;6.930;2024-01-16T03:19:14;0.80;99.90
13322;DHT22;6730;46.248;6.930;2024-01-16T03:21:40;0.90;99.90
13322;DHT22;6730;46.248;6.930;2024-01-16T03:24:06;0.90;99.90
13322;DHT22;6730;46.248;6.930;2024-01-16T03:26:32;0.90;99.90
13322;DHT22;6730;46.248;6.930;2024-01-16T03:28:59;0.90;99.90
13322;DHT22;6730;46.248;6.930;2024-01-16T03:31:24;0.90;99.90
13322;DHT22;6730;46.248;6.930;2024-01-16T03:33:50;0.70;99.90
13322;DHT22;6730;46.248;6.930;2024-01-16T03:36:16;0.60;99.90
13322;DHT22;6730;46.248;6.930;2024-01-16T03:38:42;0.50;99.90
13322;DHT22;6730;46.248;6.930;2024-01-16T03:41:10;0.40;99.90
13322;DHT22;6730;46.248;6.930;2024-01-16T03:43:36;0.30;99.90
13322;DHT22;6730;46.248;6.930;2024-01-16T03:46:02;0.20;99.90
13322;DHT22;6730;46.248;6.930;2024-01-16T03:48:28;0.30;99.90
13322;DHT22;6730;46.248;6.930;2024-01-16T03:50:55;0.40;99.90
13322;DHT22;6730;46.248;6.930;2024-01-16T03:53:21;0.50;99.90
13322;DHT22;6730;46.248;6.930;2024-01-16T03:55:47;0.50;99.90
13322;DHT22;6730;46.248;6.930;2024-01-16T03:58:13;0.60;99.90
13322;DHT22;6730;46.248;6.930;2024-01-16T04:00:39;0.60;99.90
13322;DHT22;6730;46.248;6.930;2024-01-16T04:03:05;0.60;99.90
13322;DHT22;6730;46.248;6.930;2024-01-16T04:05:32;0.60;99.90
13322;DHT22;6730;46.248;6.930;2024-01-16T04:07:58;0.50;99.90
13322;DHT22;6730;46.248;6.930;2024-01-16T04:10:24;0.50;99.90
13322;DHT22;6730;46.248;6.930;2024-01-16T04:12:50;0.50;99.90
13322;DHT22;6730;46.248;6.930;2024-01-16T04:15:15;0.40;99.90
13322;DHT22;6730;46.248;6.930;2024-01-16T04:17:41;0.50;99.90
13322;DHT22;6730;46.248;6.930;2024-01-16T04:20:07;0.50;99.90
13322;DHT22;6730;46.248;6.930;2024-01-16T04:22:34;0.40;99.90
13322;DHT22;6730;46.248;6.930;2024-01-16T04:25:00;0.20;99.90
13322;DHT22;6730;46.248;6.930;2024-01-16T04:27:26;0.30;99.90
13322;DHT22;6730;46.248;6.930;2024-01-16T04:29:52;0.30;99.90
13322;DHT22;6730;46.248;6.930;2024-01-16T04:32:18;0.40;99.90
13322;DHT22;6730;46.248;6.930;2024-01-16T04:34:44;0.60;99.90
13322;DHT22;6730;46.248;6.930;2024-01-16T04:37:10;0.60;99.90
13322;DHT22;6730;46.248;6.930;2024-01-16T04:39:36;0.50;99.90
13322;DHT22;6730;46.248;6.930;2024-01-16T04:42:02;0.50;99.90
13322;DHT22;6730;46.248;6.930;2024-01-16T04:44:28;0.40;99.90
13322;DHT22;6730;46.248;6.930;2024-01-16T04:46:53;0.30;99.90
13322;DHT22;6730;46.248;6.930;2024-01-16T04:49:19;0.20;99.90
13322;DHT22;6730;46.248;6.930;2024-01-16T04:51:45;0.30;99.90
13322;DHT22;6730;46.248;6.930;2024-01-16T04:54:12;0.30;99.90
13322;DHT22;6730;46.248;6.930;2024-01-16T04:56:37;0.50;99.90
13322;DHT22;6730;46.248;6.930;2024-01-16T04:59:03;0.20;99.90
13322;DHT22;6730;46.248;6.930;2024-01-16T05:01:29;0.20;99.90
13322;DHT22;6730;46.248;6.930;2024-01-16T05:03:55;0.10;99.90
13322;DHT22;6730;46.248;6.930;2024-01-16T05:06:20;0.00;99.90
13322;DHT22;6730;46.248;6.930;2024-01-16T05:08:47;0.00;99.90
13322;DHT22;6730;46.248;6.930;2024-01-16T05:11:12;0.10;99.90
13322;DHT22;6730;46.248;6.930;2024-01-16T05:13:38;0.00;99.90
13322;DHT22;6730;46.248;6.930;2024-01-16T05:16:05;-0.10;99.90
13322;DHT22;6730;46.248;6.930;2024-01-16T05:18:31;0.00;99.90
13322;DHT22;6730;46.248;6.930;2024-01-16T05:20:58;0.00;99.90
13322;DHT22;6730;46.248;6.930;2024-01-16T05:23:24;-0.10;99.90
13322;DHT22;6730;46.248;6.930;2024-01-16T05:25:49;-0.10;99.90
13322;DHT22;6730;46.248;6.930;2024-01-16T05:28:15;0.00;99.90
13322;DHT22;6730;46.248;6.930;2024-01-16T05:30:41;0.20;99.90
13322;DHT22;6730;46.248;6.930;2024-01-16T05:33:07;0.20;99.90
13322;DHT22;6730;46.248;6.930;2024-01-16T05:35:33;0.20;99.90
13322;DHT22;6730;46.248;6.930;2024-01-16T05:37:58;0.20;99.90
13322;DHT22;6730;46.248;6.930;2024-01-16T05:40:25;0.30;99.90
13322;DHT22;6730;46.248;6.930;2024-01-16T05:42:50;0.50;99.90
13322;DHT22;6730;46.248;6.930;2024-01-16T05:45:17;0.70;99.90
13322;DHT22;6730;46.248;6.930;2024-01-16T05:47:43;0.60;99.90
13322;DHT22;6730;46.248;6.930;2024-01-16T05:50:09;0.60;99.90
13322;DHT22;6730;46.248;6.930;2024-01-16T05:52:35;0.70;99.90
13322;DHT22;6730;46.248;6.930;2024-01-16T05:55:01;0.60;99.90
13322;DHT22;6730;46.248;6.930;2024-01-16T05:57:30;0.60;99.90
13322;DHT22;6730;46.248;6.930;2024-01-16T05:59:59;0.60;99.90
13322;DHT22;6730;46.248;6.930;2024-01-16T06:02:24;0.70;99.90
13322;DHT22;6730;46.248;6.930;2024-01-16T06:04:51;0.70;99.90
13322;DHT22;6730;46.248;6.930;2024-01-16T06:07:16;0.70;99.90
13322;DHT22;6730;46.248;6.930;2024-01-16T06:09:42;0.60;99.90
13322;DHT22;6730;46.248;6.930;2024-01-16T06:12:08;0.50;99.90
13322;DHT22;6730;46.248;6.930;2024-01-16T06:14:34;0.30;99.90
13322;DHT22;6730;46.248;6.930;2024-01-16T06:17:00;0.30;99.90
13322;DHT22;6730;46.248;6.930;2024-01-16T06:19:26;0.30;99.90
13322;DHT22;6730;46.248;6.930;2024-01-16T06:21:52;0.30;99.90
13322;DHT22;6730;46.248;6.930;2024-01-16T06:24:18;0.20;99.90
13322;DHT22;6730;46.248;6.930;2024-01-16T06:26:44;0.10;99.90
13322;DHT22;6730;46.248;6.930;2024-01-16T06:29:10;0.20;99.90
13322;DHT22;6730;46.248;6.930;2024-01-16T06:31:35;0.50;99.90
13322;DHT22;6730;46.248;6.930;2024-01-16T06:34:01;0.60;99.90
13322;DHT22;6730;46.248;6.930;2024-01-16T06:36:27;0.70;99.90
13322;DHT22;6730;46.248;6.930;2024-01-16T06:38:52;0.50;99.90
13322;DHT22;6730;46.248;6.930;2024-01-16T06:41:18;0.50;99.90
13322;DHT22;6730;46.248;6.930;2024-01-16T06:43:44;0.40;99.90
13322;DHT22;6730;46.248;6.930;2024-01-16T06:46:09;0.30;99.90
13322;DHT22;6730;46.248;6.930;2024-01-16T06:48:36;0.40;99.90
13322;DHT22;6730;46.248;6.930;2024-01-16T06:51:03;0.70;99.90
13322;DHT22;6730;46.248;6.930;2024-01-16T06:53:29;0.60;99.90
13322;DHT22;6730;46.248;6.930;2024-01-16T06:55:55;0.50;99.90
13322;DHT22;6730;46.248;6.930;2024-01-16T06:58:20;0.50;99.90
13322;DHT22;6730;46.248;6.930;2024-01-16T07:00:47;0.10;99.90
13322;DHT22;6730;46.248;6.930;2024-01-16T07:03:13;-0.10;99.90
13322;DHT22;6730;46.248;6.930;2024-01-16T07:05:39;0.00;99.90
13322;DHT22;6730;46.248;6.930;2024-01-16T07:08:06;0.20;99.90
13322;DHT22;6730;46.248;6.930;2024-01-16T07:10:32;0.40;99.90
13322;DHT22;6730;46.248;6.930;2024-01-16T07:12:59;0.20;99.90
13322;DHT22;6730;46.248;6.930;2024-01-16T07:15:25;0.40;99.90
13322;DHT22;6730;46.248;6.930;2024-01-16T07:17:51;0.40;99.90
13322;DHT22;6730;46.248;6.930;2024-01-16T07:20:17;0.60;99.90
13322;DHT22;6730;46.248;6.930;2024-01-16T07:22:42;0.50;99.90
13322;DHT22;6730;46.248;6.930;2024-01-16T07:25:09;0.40;99.90
13322;DHT22;6730;46.248;6.930;2024-01-16T07:27:35;0.20;99.90
13322;DHT22;6730;46.248;6.930;2024-01-16T07:30:01;0.10;99.90
13322;DHT22;6730;46.248;6.930;2024-01-16T07:32:27;-0.10;99.90
13322;DHT22;6730;46.248;6.930;2024-01-16T07:34:52;0.00;99.90
13322;DHT22;6730;46.248;6.930;2024-01-16T07:37:18;0.00;99.90
13322;DHT22;6730;46.248;6.930;2024-01-16T07:39:44;-0.20;99.90
13322;DHT22;6730;46.248;6.930;2024-01-16T07:42:10;-0.30;99.90
13322;DHT22;6730;46.248;6.930;2024-01-16T07:44:36;-0.30;99.90
13322;DHT22;6730;46.248;6.930;2024-01-16T07:47:02;-0.30;99.90
13322;DHT22;6730;46.248;6.930;2024-01-16T07:49:28;-0.20;99.90
13322;DHT22;6730;46.248;6.930;2024-01-16T07:51:54;0.00;99.90
13322;DHT22;6730;46.248;6.930;2024-01-16T07:54:20;0.10;99.90
13322;DHT22;6730;46.248;6.930;2024-01-16T07:56:46;0.20;99.90
13322;DHT22;6730;46.248;6.930;2024-01-16T07:59:11;0.30;99.90
13322;DHT22;6730;46.248;6.930;2024-01-16T08:01:37;0.40;99.90
13322;DHT22;6730;46.248;6.930;2024-01-16T08:04:03;0.50;99.90
13322;DHT22;6730;46.248;6.930;2024-01-16T08:06:29;0.70;99.90
13322;DHT22;6730;46.248;6.930;2024-01-16T08:08:55;1.10;99.90
13322;DHT22;6730;46.248;6.930;2024-01-16T08:11:21;1.30;99.90
13322;DHT22;6730;46.248;6.930;2024-01-16T08:13:47;1.50;99.90
13322;DHT22;6730;46.248;6.930;2024-01-16T08:16:13;1.70;99.90
13322;DHT22;6730;46.248;6.930;2024-01-16T08:18:39;1.90;99.90
13322;DHT22;6730;46.248;6.930;2024-01-16T08:21:04;2.20;99.90
13322;DHT22;6730;46.248;6.930;2024-01-16T08:23:31;2.50;99.90
13322;DHT22;6730;46.248;6.930;2024-01-16T08:25:56;2.70;99.90
13322;DHT22;6730;46.248;6.930;2024-01-16T08:28:22;3.20;99.90
13322;DHT22;6730;46.248;6.930;2024-01-16T08:30:50;3.90;99.90
13322;DHT22;6730;46.248;6.930;2024-01-16T08:33:16;4.40;99.90
13322;DHT22;6730;46.248;6.930;2024-01-16T08:35:42;4.60;99.90
13322;DHT22;6730;46.248;6.930;2024-01-16T08:38:07;4.20;99.90
13322;DHT22;6730;46.248;6.930;2024-01-16T08:40:33;4.10;99.90
13322;DHT22;6730;46.248;6.930;2024-01-16T08:42:59;3.90;99.90
13322;DHT22;6730;46.248;6.930;2024-01-16T08:45:24;4.00;99.90
13322;DHT22;6730;46.248;6.930;2024-01-16T08:47:51;4.30;99.90
13322;DHT22;6730;46.248;6.930;2024-01-16T08:50:17;4.70;99.90
13322;DHT22;6730;46.248;6.930;2024-01-16T08:52:43;4.70;99.90
13322;DHT22;6730;46.248;6.930;2024-01-16T08:55:09;4.90;99.90
13322;DHT22;6730;46.248;6.930;2024-01-16T08:57:36;5.30;99.90
13322;DHT22;6730;46.248;6.930;2024-01-16T09:00:05;5.90;99.90
13322;DHT22;6730;46.248;6.930;2024-01-16T09:02:31;6.40;99.90
13322;DHT22;6730;46.248;6.930;2024-01-16T09:04:57;6.90;99.90
13322;DHT22;6730;46.248;6.930;2024-01-16T09:07:24;7.00;99.90
13322;DHT22;6730;46.248;6.930;2024-01-16T09:09:50;7.00;99.90
13322;DHT22;6730;46.248;6.930;2024-01-16T09:12:16;6.80;99.90
13322;DHT22;6730;46.248;6.930;2024-01-16T09:14:41;6.60;99.90
13322;DHT22;6730;46.248;6.930;2024-01-16T09:17:07;6.30;99.90
13322;DHT22;6730;46.248;6.930;2024-01-16T09:19:33;6.10;99.90
13322;DHT22;6730;46.248;6.930;2024-01-16T09:21:59;6.10;99.90
13322;DHT22;6730;46.248;6.930;2024-01-16T09:24:25;6.00;99.90
13322;DHT22;6730;46.248;6.930;2024-01-16T09:26:50;6.00;99.90
13322;DHT22;6730;46.248;6.930;2024-01-16T09:29:16;6.00;99.90
13322;DHT22;6730;46.248;6.930;2024-01-16T09:31:42;6.00;99.90
13322;DHT22;6730;46.248;6.930;2024-01-16T09:34:07;6.20;99.90
13322;DHT22;6730;46.248;6.930;2024-01-16T09:36:34;6.40;99.90
13322;DHT22;6730;46.248;6.930;2024-01-16T09:39:04;7.30;99.90
13322;DHT22;6730;46.248;6.930;2024-01-16T09:41:33;6.80;99.90
13322;DHT22;6730;46.248;6.930;2024-01-16T09:43:59;7.50;99.90
13322;DHT22;6730;46.248;6.930;2024-01-16T09:46:26;7.90;99.90
13322;DHT22;6730;46.248;6.930;2024-01-16T09:48:54;8.50;99.90
13322;DHT22;6730;46.248;6.930;2024-01-16T09:51:20;8.80;99.90
13322;DHT22;6730;46.248;6.930;2024-01-16T09:53:46;8.00;99.90
13322;DHT22;6730;46.248;6.930;2024-01-16T09:56:16;7.80;99.90
13322;DHT22;6730;46.248;6.930;2024-01-16T09:58:43;7.90;99.90
13322;DHT22;6730;46.248;6.930;2024-01-16T10:01:11;7.90;99.90
13322;DHT22;6730;46.248;6.930;2024-01-16T10:03:38;8.70;99.90
13322;DHT22;6730;46.248;6.930;2024-01-16T10:06:07;8.80;99.90
13322;DHT22;6730;46.248;6.930;2024-01-16T10:08:33;8.20;99.90
13322;DHT22;6730;46.248;6.930;2024-01-16T10:10:59;8.10;99.90
13322;DHT22;6730;46.248;6.930;2024-01-16T10:13:26;7.90;99.90
13322;DHT22;6730;46.248;6.930;2024-01-16T10:15:52;8.60;99.90
13322;DHT22;6730;46.248;6.930;2024-01-16T10:20:49;7.30;99.90
13322;DHT22;6730;46.248;6.930;2024-01-16T10:23:30;7.40;99.90
13322;DHT22;6730;46.248;6.930;2024-01-16T10:28:30;7.90;99.90
13322;DHT22;6730;46.248;6.930;2024-01-16T10:31:10;8.20;99.90
13322;DHT22;6730;46.248;6.930;2024-01-16T10:33:37;7.70;99.90
13322;DHT22;6730;46.248;6.930;2024-01-16T10:36:14;7.70;99.90
13322;DHT22;6730;46.248;6.930;2024-01-16T10:38:43;7.80;99.90
13322;DHT22;6730;46.248;6.930;2024-01-16T10:41:16;7.40;99.90
13322;DHT22;6730;46.248;6.930;2024-01-16T10:43:43;7.20;99.90
13322;DHT22;6730;46.248;6.930;2024-01-16T10:46:14;6.70;99.90
13322;DHT22;6730;46.248;6.930;2024-01-16T10:48:43;6.20;99.90
13322;DHT22;6730;46.248;6.930;2024-01-16T10:51:14;5.90;99.90
13322;DHT22;6730;46.248;6.930;2024-01-16T10:53:44;7.00;99.90
13322;DHT22;6730;46.248;6.930;2024-01-16T10:56:10;7.70;99.90
13322;DHT22;6730;46.248;6.930;2024-01-16T10:58:42;7.50;99.90
13322;DHT22;6730;46.248;6.930;2024-01-16T11:01:11;7.90;99.90
13322;DHT22;6730;46.248;6.930;2024-01-16T11:03:49;7.60;99.90
13322;DHT22;6730;46.248;6.930;2024-01-16T11:06:16;7.10;99.90
13322;DHT22;6730;46.248;6.930;2024-01-16T11:08:42;6.40;99.90
13322;DHT22;6730;46.248;6.930;2024-01-16T11:11:08;5.80;99.90
13322;DHT22;6730;46.248;6.930;2024-01-16T11:13:35;5.40;99.90
13322;DHT22;6730;46.248;6.930;2024-01-16T11:16:04;4.70;99.90
13322;DHT22;6730;46.248;6.930;2024-01-16T11:18:31;4.30;99.90
13322;DHT22;6730;46.248;6.930;2024-01-16T11:20:58;4.20;99.90
13322;DHT22;6730;46.248;6.930;2024-01-16T11:23:25;4.00;99.90
13322;DHT22;6730;46.248;6.930;2024-01-16T11:25:50;3.90;99.90
13322;DHT22;6730;46.248;6.930;2024-01-16T11:28:16;3.50;99.90
13322;DHT22;6730;46.248;6.930;2024-01-16T11:30:42;3.70;99.90
13322;DHT22;6730;46.248;6.930;2024-01-16T11:35:56;4.00;99.90
13322;DHT22;6730;46.248;6.930;2024-01-16T11:38:23;4.40;99.90
13322;DHT22;6730;46.248;6.930;2024-01-16T11:40:52;5.00;99.90
13322;DHT22;6730;46.248;6.930;2024-01-16T11:46:08;5.90;99.90
13322;DHT22;6730;46.248;6.930;2024-01-16T11:48:35;6.10;99.90
13322;DHT22;6730;46.248;6.930;2024-01-16T11:51:24;6.20;99.90
13322;DHT22;6730;46.248;6.930;2024-01-16T11:53:50;6.50;99.90
13322;DHT22;6730;46.248;6.930;2024-01-16T11:56:31;6.30;99.90
13322;DHT22;6730;46.248;6.930;2024-01-16T12:01:58;6.50;99.90
13322;DHT22;6730;46.248;6.930;2024-01-16T12:04:24;6.90;99.90
13322;DHT22;6730;46.248;6.930;2024-01-16T12:06:57;6.00;99.90
13322;DHT22;6730;46.248;6.930;2024-01-16T12:09:25;4.50;99.90
13322;DHT22;6730;46.248;6.930;2024-01-16T12:12:00;3.40;99.90
13322;DHT22;6730;46.248;6.930;2024-01-16T12:14:27;3.10;99.90
13322;DHT22;6730;46.248;6.930;2024-01-16T12:16:53;3.40;99.90
13322;DHT22;6730;46.248;6.930;2024-01-16T12:19:18;3.40;99.90
13322;DHT22;6730;46.248;6.930;2024-01-16T12:21:45;3.40;99.90
13322;DHT22;6730;46.248;6.930;2024-01-16T12:24:11;4.10;99.90
13322;DHT22;6730;46.248;6.930;2024-01-16T12:26:37;4.10;99.90
13322;DHT22;6730;46.248;6.930;2024-01-16T12:29:03;4.30;99.90
13322;DHT22;6730;46.248;6.930;2024-01-16T12:31:29;4.40;99.90
13322;DHT22;6730;46.248;6.930;2024-01-16T12:34:08;4.70;99.90
13322;DHT22;6730;46.248;6.930;2024-01-16T12:36:35;4.70;99.90
13322;DHT22;6730;46.248;6.930;2024-01-16T12:39:01;5.00;99.90
13322;DHT22;6730;46.248;6.930;2024-01-16T12:41:31;5.30;99.90
13322;DHT22;6730;46.248;6.930;2024-01-16T12:43:58;5.30;99.90
13322;DHT22;6730;46.248;6.930;2024-01-16T12:46:25;5.30;99.90
13322;DHT22;6730;46.248;6.930;2024-01-16T12:48:50;5.10;99.90
13322;DHT22;6730;46.248;6.930;2024-01-16T12:51:22;5.50;99.90
13322;DHT22;6730;46.248;6.930;2024-01-16T12:53:49;5.00;99.90
13322;DHT22;6730;46.248;6.930;2024-01-16T12:56:18;5.10;99.90
13322;DHT22;6730;46.248;6.930;2024-01-16T12:58:45;5.40;99.90
13322;DHT22;6730;46.248;6.930;2024-01-16T13:01:24;5.10;99.90
13322;DHT22;6730;46.248;6.930;2024-01-16T13:03:50;5.00;99.90
13322;DHT22;6730;46.248;6.930;2024-01-16T13:06:18;5.10;99.90
13322;DHT22;6730;46.248;6.930;2024-01-16T13:08:48;4.90;99.90
13322;DHT22;6730;46.248;6.930;2024-01-16T13:11:15;4.50;99.90
13322;DHT22;6730;46.248;6.930;2024-01-16T13:13:48;4.20;99.90
13322;DHT22;6730;46.248;6.930;2024-01-16T13:16:15;4.40;99.90
13322;DHT22;6730;46.248;6.930;2024-01-16T13:18:41;4.70;99.90
13322;DHT22;6730;46.248;6.930;2024-01-16T13:21:07;4.90;99.90
13322;DHT22;6730;46.248;6.930;2024-01-16T13:23:33;4.60;99.90
13322;DHT22;6730;46.248;6.930;2024-01-16T13:25:58;4.50;99.90
13322;DHT22;6730;46.248;6.930;2024-01-16T13:28:25;4.70;99.90
13322;DHT22;6730;46.248;6.930;2024-01-16T13:30:51;4.70;99.90
13322;DHT22;6730;46.248;6.930;2024-01-16T13:33:18;4.70;99.90
13322;DHT22;6730;46.248;6.930;2024-01-16T13:35:47;4.90;99.90
13322;DHT22;6730;46.248;6.930;2024-01-16T13:38:13;5.10;99.90
13322;DHT22;6730;46.248;6.930;2024-01-16T13:40:41;5.20;99.90
13322;DHT22;6730;46.248;6.930;2024-01-16T13:43:07;5.10;99.90
13322;DHT22;6730;46.248;6.930;2024-01-16T13:45:33;5.00;99.90
13322;DHT22;6730;46.248;6.930;2024-01-16T13:48:01;5.00;99.90
13322;DHT22;6730;46.248;6.930;2024-01-16T13:50:27;4.90;99.90
13322;DHT22;6730;46.248;6.930;2024-01-16T13:52:52;4.40;99.90
13322;DHT22;6730;46.248;6.930;2024-01-16T13:55:20;4.40;99.90
13322;DHT22;6730;46.248;6.930;2024-01-16T13:57:46;4.70;99.90
13322;DHT22;6730;46.248;6.930;2024-01-16T14:00:13;5.10;99.90
13322;DHT22;6730;46.248;6.930;2024-01-16T14:02:41;5.10;99.90
13322;DHT22;6730;46.248;6.930;2024-01-16T14:05:11;5.00;99.90
13322;DHT22;6730;46.248;6.930;2024-01-16T14:07:40;5.00;99.90
13322;DHT22;6730;46.248;6.930;2024-01-16T14:10:09;4.90;99.90
13322;DHT22;6730;46.248;6.930;2024-01-16T14:12:35;5.10;99.90
13322;DHT22;6730;46.248;6.930;2024-01-16T14:15:02;4.60;99.90
13322;DHT22;6730;46.248;6.930;2024-01-16T14:17:35;4.40;99.90
13322;DHT22;6730;46.248;6.930;2024-01-16T14:20:01;4.20;99.90
13322;DHT22;6730;46.248;6.930;2024-01-16T14:22:28;3.70;99.90
13322;DHT22;6730;46.248;6.930;2024-01-16T14:24:53;3.50;99.90
13322;DHT22;6730;46.248;6.930;2024-01-16T14:27:19;3.50;99.90
13322;DHT22;6730;46.248;6.930;2024-01-16T14:29:44;3.50;99.90
13322;DHT22;6730;46.248;6.930;2024-01-16T14:32:10;3.30;99.90
13322;DHT22;6730;46.248;6.930;2024-01-16T14:34:36;3.10;99.90
13322;DHT22;6730;46.248;6.930;2024-01-16T14:37:02;3.00;99.90
13322;DHT22;6730;46.248;6.930;2024-01-16T14:39:28;3.00;99.90
13322;DHT22;6730;46.248;6.930;2024-01-16T14:41:56;3.00;99.90
13322;DHT22;6730;46.248;6.930;2024-01-16T14:44:25;3.00;99.90
13322;DHT22;6730;46.248;6.930;2024-01-16T14:46:50;3.00;99.90
13322;DHT22;6730;46.248;6.930;2024-01-16T14:49:19;3.00;99.90
13322;DHT22;6730;46.248;6.930;2024-01-16T14:51:46;3.00;99.90
13322;DHT22;6730;46.248;6.930;2024-01-16T14:54:15;2.90;99.90
13322;DHT22;6730;46.248;6.930;2024-01-16T14:56:40;2.80;99.90
13322;DHT22;6730;46.248;6.930;2024-01-16T14:59:06;2.80;99.90
13322;DHT22;6730;46.248;6.930;2024-01-16T15:01:32;2.80;99.90
13322;DHT22;6730;46.248;6.930;2024-01-16T15:03:58;2.90;99.90
13322;DHT22;6730;46.248;6.930;2024-01-16T15:06:25;3.00;99.90
13322;DHT22;6730;46.248;6.930;2024-01-16T15:08:54;3.00;99.90
13322;DHT22;6730;46.248;6.930;2024-01-16T15:11:20;3.00;99.90
13322;DHT22;6730;46.248;6.930;2024-01-16T15:13:45;2.90;99.90
13322;DHT22;6730;46.248;6.930;2024-01-16T15:16:11;2.80;99.90
13322;DHT22;6730;46.248;6.930;2024-01-16T15:18:37;2.70;99.90
13322;DHT22;6730;46.248;6.930;2024-01-16T15:21:03;2.60;99.90
13322;DHT22;6730;46.248;6.930;2024-01-16T15:23:29;2.60;99.90
13322;DHT22;6730;46.248;6.930;2024-01-16T15:25:55;2.50;99.90
13322;DHT22;6730;46.248;6.930;2024-01-16T15:28:21;2.60;99.90
13322;DHT22;6730;46.248;6.930;2024-01-16T15:30:47;2.80;99.90
13322;DHT22;6730;46.248;6.930;2024-01-16T15:33:12;3.00;99.90
13322;DHT22;6730;46.248;6.930;2024-01-16T15:35:39;3.20;99.90
13322;DHT22;6730;46.248;6.930;2024-01-16T15:38:04;3.10;99.90
13322;DHT22;6730;46.248;6.930;2024-01-16T15:40:30;2.90;99.90
13322;DHT22;6730;46.248;6.930;2024-01-16T15:42:56;2.80;99.90
13322;DHT22;6730;46.248;6.930;2024-01-16T15:45:22;2.70;99.90
13322;DHT22;6730;46.248;6.930;2024-01-16T15:47:48;3.00;99.90
13322;DHT22;6730;46.248;6.930;2024-01-16T15:50:14;3.40;99.90
13322;DHT22;6730;46.248;6.930;2024-01-16T15:52:40;3.10;99.90
13322;DHT22;6730;46.248;6.930;2024-01-16T15:55:05;2.80;99.90
13322;DHT22;6730;46.248;6.930;2024-01-16T15:57:31;3.10;99.90
13322;DHT22;6730;46.248;6.930;2024-01-16T15:59:57;3.60;99.90
13322;DHT22;6730;46.248;6.930;2024-01-16T16:02:23;3.70;99.90
13322;DHT22;6730;46.248;6.930;2024-01-16T16:04:48;3.80;99.90
13322;DHT22;6730;46.248;6.930;2024-01-16T16:07:14;4.10;99.90
13322;DHT22;6730;46.248;6.930;2024-01-16T16:09:40;4.20;99.90
13322;DHT22;6730;46.248;6.930;2024-01-16T16:12:06;4.00;99.90